NWS Home NWS Lubbock West Texas Mesonet Latest Conditions as of 0236 AM, Sun Mar 24, 2019

Latest   N   C   S   Daily Sum   3hrΔ   24hrΔ   Soil Data 
Site Map   24hr Precip   72hr Precip   Google Plot


Station Time of Last Temp Dew Pt. RH Wind Direction Wind Speed Wind Gust Max Wind Max Temp Min Temp Max RH Min RH Altimeter 1HR Rain Today's Rain Solar Rad RFTI
Abernathy 5ENE  02:30 AM 43 27 53% NW56 13 mph 294° @ 0110 AM 48 42 57 44 30.01" 0 0 0 0
Adrian 6WSW  02:30 AM 41 36 81% N89 20 mph 12° @ 0205 AM 50 41 81 44 30.06" 0 0 0 0
Aiken 3WSW  02:30 AM 42 27 55% SW99 13 mph 272° @ 1240 AM 45 40 60 50 30.01" 0 0 0 0
Amarillo 15NNW   02:30 AM 44 38 79% NE1114 22 mph 315° @ 0113 AM 53 44 79 53 30.01" 0 0 0 0
Amarillo 7SSE  02:30 AM 42 36 78% W910 18 mph 230° @ 0207 AM 46 38 94 72 30.00" 0 0 0 0
Amarillo 9NNE  02:30 AM 44 37 78% N78 20 mph 329° @ 0130 AM 54 44 78 50 30.00" 0 0 0 0
Amherst 1NE  02:30 AM 47 24 40% W1213 14 mph 251° @ 0135 AM 51 46 43 32 30.01" 0 0 0 0
Andrews 2E  02:30 AM 55 24 30% SW813 14 mph 186° @ 0135 AM 55 51 43 29 30.03" 0 0 0 0
Anton 6SSW  02:30 AM 42 25 51% NW67 16 mph 211° @ 1225 AM 49 42 51 43 30.01" 0 0 0 0
Aspermont 3NE  02:30 AM 54 35 50% S1011 13 mph 183° @ 0225 AM 56 53 52 46 29.96" 0 0 0 0
Big Bend NP - Persimmon Gap  02:30 AM 64 45 50% NE1518 21 mph 74° @ 1256 AM 68 59 51 17 30.02" 0 0 0 0
Big Lake 1WNW  02:30 AM 56 54 92% S66 16 mph 182° @ 1202 AM 62 56 92 73 30.05" 0 0 0 0
Bootleg 11WNW  02:30 AM 45 30 56% NW1214 18 mph 322° @ 0225 AM 47 42 56 45 30.07" 0 0 0 0
Boys Ranch 1WSW  02:30 AM 45 37 75% NW79 26 mph 33° @ 0122 AM 49 40 78 56 30.05" 0 0 0 0
Brownfield 2S  02:30 AM 48 25 40% SW1112 12 mph 237° @ 0230 AM 51 43 55 36 30.00" 0 0 0 0
Canadian 6E  02:30 AM 47 40 76% N1516 20 mph 359° @ 0122 AM 50 45 77 57 29.96" 0 0 0 0
Caprock Canyons State Park  02:30 AM 60 22 23% W1415 23 mph 248° @ 0138 AM 62 55 31 21 29.97" 0 0 0 0
Childress 2NNE  02:10 AM 51 42 74% SE88 11 mph 117° @ 1245 AM 55 51 74 64 29.93" 0 0 0 0
Clarendon 2WSW  02:30 AM 44 36 73% W35 16 mph 133° @ 1245 AM 54 44 73 55 29.95" 0 0 0 0
Claude 12SW  02:30 AM 53 31 43% W811 15 mph 237° @ 0225 AM 54 51 54 41 29.97" 0 0 0 0
Clyde 2WNW  02:30 AM 57 56 96% S1012 17 mph 171° @ 0146 AM 60 57 96 90 30.02" 0 0 0 0
Colorado City 5NW  02:30 AM 52 35 53% S45 13 mph 152° @ 0154 AM 55 50 59 50 30.01" 0 0 0 0
Coyanosa 2N  02:30 AM 49 33 55% S1011 12 mph 183° @ 0159 AM 58 49 56 33 30.02" 0 0 0 0
Crane 1NNW   02:30 AM 62 55 78% S1316 27 mph 174° @ 1231 AM 66 62 78 45 30.02" 0 0 0 0
Crowell 1E  02:30 AM 51 37 57% S66 9 mph 3° @ 1232 AM 60 51 59 36 29.94" 0 0 0 0
Dell City  02:30 AM 47 23 39% SW45 11 mph 173° @ 0131 AM 51 46 49 33 30.08" 0 0 0 0
Denver City 7WNW  02:30 AM 47 19 33% W1013 14 mph 244° @ 0200 AM 47 44 42 33 30.02" 0 0 0 0
Dimmitt 2NE  02:30 AM 45 32 59% W810 14 mph 261° @ 0130 AM 49 44 63 48 30.01" 0 0 0 0
Dora NM 2SW  02:30 AM 45 18 33% W78 12 mph 246° @ 1205 AM 48 45 34 29 30.04" 0 0 0 0
Dozier 3W  02:30 AM 51 42 71% SW45 6 mph 244° @ 0221 AM 53 50 71 62 29.95" 0 0 0 0
Earth 9WSW  02:30 AM 49 24 37% SW1213 18 mph 229° @ 1231 AM 59 42 54 22 30.03" 0 0 0 0
Endee NM 2SW  02:30 AM 43 35 74% N1012 22 mph 4° @ 0153 AM 51 43 74 39 30.06" 0 0 0 0
Estelline 3SSE  02:30 AM 47 40 75% SW67 12 mph 116° @ 1226 AM 58 47 75 54 29.94" 0 0 0 0
Floydada 2NNE  02:30 AM 42 25 52% W910 16 mph 203° @ 1215 AM 57 42 52 24 29.99" 0 0 0 0
Fluvanna 3WNW  02:30 AM 50 31 48% S1013 13 mph 187° @ 0225 AM 55 50 48 39 30.00" 0 0 0 0
Fort Chadbourne  02:30 AM 53 46 79% SE33 8 mph 224° @ 1238 AM 57 49 79 53 30.02" 0 0 0 0
Fort Lancaster  02:30 AM 62 60 90% E56 11 mph 122° @ 1204 AM 65 62 91 76 30.03" 0 0 0 0
Fort Lewis CO  02:30 AM 33 22 66% N00 6 mph 334° @ 0100 AM 34 31 71 63 30.14" 0 0 0 0
Fort McKavett  02:30 AM 62 60 91% S57 23 mph 170° @ 1244 AM 64 62 92 84 30.06" 0 0 0 0
Friona 2NE  02:30 AM 41 32 71% NW59 15 mph 244° @ 0105 AM 47 40 73 53 30.03" 0 0 0 0
Fritch 1WNW  02:30 AM 45 38 75% NE912 21 mph 39° @ 0124 AM 52 45 75 54 30.01" 0 0 0 0
Gail 2ESE  02:30 AM 53 27 37% SW910 11 mph 219° @ 0200 AM 56 53 37 31 29.99" 0 0 0 0
Goodlett 3W  02:30 AM 52 41 67% SE56 14 mph 109° @ 1235 AM 55 51 71 64 29.92" 0 0 0 0
Goodnight  02:30 AM 51 38 63% S44 14 mph 150° @ 0223 AM 52 48 74 57 29.98" 0 0 0 0
Graham 5SSW  02:30 AM 55 25 32% SW1012 12 mph 244° @ 0230 AM 58 52 37 26 29.99" 0 0 0 0
Guadalupe Mtns Natl Park  02:30 AM 56 18 22% SW1012 27 mph 240° @ 0106 AM 60 53 24 19 30.12" 0 0 0 0
Guthrie 10WSW  02:30 AM 54 31 42% W23 12 mph 204° @ 1250 AM 56 53 43 37 29.95" 0 0 0 0
Hackberry 2 SSE  02:30 AM 58 34 40% SW1517 21 mph 209° @ 0208 AM 61 58 40 34 29.93" 0 0 0 0
Happy 1E  02:30 AM 43 35 71% W1112 17 mph 262° @ 0154 AM 46 42 73 62 30.00" 0 0 0 0
Hart 3N  02:30 AM 41 28 59% W911 15 mph 266° @ 0220 AM 44 40 62 49 30.01" 0 0 0 0
Haskell 1NW  02:30 AM 54 48 83% S89 13 mph 173° @ 0125 AM 57 53 83 45 29.96" 0 0 0 0
Hereford 2NW  02:30 AM 42 33 70% W1012 16 mph 288° @ 0130 AM 46 41 76 59 30.01" 0 0 0 0
Hobbs NM 5NW  02:30 AM 46 20 35% S77 12 mph 273° @ 0136 AM 53 46 35 23 30.06" 0 0 0 0
Jayton 1SSE  02:30 AM 52 33 48% SW56 7 mph 219° @ 0140 AM 55 52 48 41 29.96" 0 0 0 0
Junction 1SSW  02:30 AM 64 61 88% S45 11 mph 189° @ 1223 AM 64 63 90 86 30.05" 0 0 0 0
Knox City 3NW  02:30 AM 50 38 63% SW78 12 mph 151° @ 0155 AM 51 47 74 58 29.95" 0 0 0 0
Lake Alan Henry 1NW  02:30 AM 53 32 46% SW56 8 mph 223° @ 1246 AM 55 52 48 42 29.97" 0 0 0 0
Lake McClellan 2NW  02:30 AM 53 36 51% S1418 18 mph 159° @ 0230 AM 54 51 57 48 29.96" 0 0 0 0
Lamesa 2SE  02:30 AM 46 30 53% SW67 13 mph 204° @ 1250 AM 52 45 57 38 30.02" 0 0 0 0
Lesley 2S  02:30 AM 53 41 64% SE11 12 mph 87° @ 0124 AM 56 49 74 54 29.94" 0 0 0 0
Levelland 4S  02:30 AM 41 32 69% SW78 11 mph 238° @ 0210 AM 49 41 71 46 30.01" 0 0 0 0
Lomax 1SSE  02:30 AM 52 32 47% S911 12 mph 206° @ 0115 AM 54 48 57 41 30.02" 0 0 0 0
Lubbock 3WNW TTU  02:30 AM 49 22 35% SW55 11 mph 208° @ 1255 AM 54 49 35 28 30.00" 0 0 0 0
McCamey 1SSW  02:30 AM 61 56 82% E57 12 mph 139° @ 1218 AM 63 61 84 59 30.04" 0 0 0 0
McLean 1E  02:30 AM 50 38 65% S79 13 mph 141° @ 0140 AM 53 50 65 54 29.94" 0 0 0 0
Memphis 1NE  02:30 AM 46 41 85% N00 8 mph 95° @ 1215 AM 56 46 85 60 29.94" 0 0 0 0
Menard 2NW   02:30 AM 64 59 85% S67 18 mph 185° @ 0116 AM 65 63 88 83 30.05" 0 0 0 0
Mertzon 3NNE  02:30 AM 53 50 88% S78 10 mph 191° @ 0200 AM 58 53 89 71 30.04" 0 0 0 0
Morton 1ENE  02:30 AM 43 23 45% NW911 11 mph 300° @ 0225 AM 49 42 47 31 30.01" 0 0 0 0
Muleshoe 2SSW  02:30 AM 40 25 55% SW34 10 mph 227° @ 1210 AM 46 40 57 40 30.03" 0 0 0 0
New Home  02:30 AM 47 26 43% SW88 11 mph 199° @ 0116 AM 53 47 43 32 30.01" 0 0 0 0
Northfield 1S  01:40 AM 52 36 55% SE35 11 mph 53° @ 1220 AM 56 52 56 41 29.94" 0 0 0 0
O'Donnell 1N  02:30 AM 45 29 53% S67 9 mph 194° @ 0140 AM 53 45 53 31 30.00" 0 0 0 0
Odell 4ENE  02:30 AM 54 43 65% S911 15 mph 95° @ 1234 AM 59 52 74 59 29.93" 0 0 0 0
Olton 6S  02:30 AM 43 27 52% NW1011 15 mph 258° @ 1205 AM 47 42 54 45 30.01" 0 0 0 0
Paducah 10SW  02:25 AM 57 29 34% SW1517 20 mph 230° @ 0200 AM 58 56 37 33 29.94" 0 0 0 0
Palo Duro 4E (JA Ranch)  02:30 AM 42 36 78% W45 9 mph 254° @ 1212 AM 50 41 80 61 29.96" 0 0 0 0
Palo Duro Canyon SP Floor  02:30 AM 46 37 72% NW810 10 mph 331° @ 0222 AM 47 43 88 72 29.97" 0 0 0 0
Palo Duro Canyon State Park Rim  02:30 AM 49 33 53% W1315 23 mph 262° @ 0226 AM 52 47 63 47 29.99" 0 0 0 0
Palo Duro Reservoir 1NW   02:30 AM 40 37 88% N1314 15 mph 345° @ 0225 AM 44 39 90 80 30.02" 0 0 0 0
Pampa 2E  02:30 AM 44 36 73% N46 19 mph 333° @ 0145 AM 51 44 79 59 30.00" 0 0 0 0
Panhandle 1SSW  02:30 AM 48 37 65% NE1214 19 mph 328° @ 0201 AM 50 45 76 61 29.99" 0 0 0 0
Plains 3N  02:30 AM 40 28 63% W89 12 mph 226° @ 0100 AM 52 40 63 29 30.02" 0 0 0 0
Plainview 1S  02:30 AM 44 28 53% SW68 12 mph 257° @ 1215 AM 51 44 53 39 29.99" 0 0 0 0
Post 1NE  02:30 AM 58 23 26% SW912 12 mph 227° @ 0220 AM 58 55 31 26 29.97" 0 0 0 0
Ralls 1SE  02:30 AM 48 27 45% SW69 12 mph 220° @ 0205 AM 50 46 52 39 30.00" 0 0 0 0
Reese Center  02:30 AM 46 29 52% SW67 13 mph 210° @ 1235 AM 49 44 59 46 30.00" 0 0 0 0
Roaring Springs 3N  02:30 AM 54 28 38% SW1114 14 mph 235° @ 0225 AM 55 52 44 34 29.96" 0 0 0 0
Romero 11 SSW  02:30 AM 42 36 80% N1012 36 mph 354° @ 1250 AM 52 42 80 46 30.05" 0 0 0 0
Rotan 5W  02:30 AM 54 33 45% S1414 17 mph 180° @ 0222 AM 58 54 45 39 29.99" 0 0 0 0
San Angelo 7NW  02:30 AM 59 52 80% SE35 11 mph 181° @ 0125 AM 61 58 81 65 30.02" 0 0 0 0
Seagraves 1SW  02:30 AM 43 28 55% SW810 11 mph 215° @ 1245 AM 46 42 64 49 30.01" 0 0 0 0
Segovia 7SSW  02:30 AM 63 59 88% S1215 23 mph 173° @ 1254 AM 64 63 90 86 30.06" 0 0 0 0
Seminole 2NNE  02:25 AM 52 21 29% W89 13 mph 248° @ 0145 AM 56 52 30 23 30.01" 0 0 0 0
Seymour 3NW  02:30 AM 55 52 93% S56 11 mph 169° @ 1235 AM 59 55 93 74 29.95" 0 0 0 0
Sierra Blanca 1SSE  02:30 AM 58 19 22% W67 7 mph 276° @ 0229 AM 60 54 25 20 30.12" 0 0 0 0
Silverton 7ESE  02:30 AM 47 27 45% SW1113 14 mph 232° @ 0130 AM 49 45 56 44 29.98" 0 0 0 0
Slaton 2NE  02:30 AM 50 26 40% SW1314 15 mph 199° @ 1205 AM 53 49 41 33 29.99" 0 0 0 0
Snyder 3E  02:30 AM 52 35 54% S1013 13 mph 172° @ 0230 AM 57 52 54 41 29.99" 0 0 0 0
Snyder 3SSW  02:30 AM 52 35 53% S1012 14 mph 183° @ 0157 AM 56 52 53 42 30.00" 0 0 0 0
South Plains 3ENE  02:30 AM 48 26 42% SW810 16 mph 283° @ 0110 AM 51 45 48 37 29.98" 0 0 0 0
Spur 1W  02:30 AM 47 28 48% W34 7 mph 232° @ 1205 AM 52 45 57 35 29.97" 0 0 0 0
St. Lawrence 5SW  02:30 AM 59 55 89% S1216 18 mph 173° @ 1230 AM 59 54 89 37 30.03" 0 0 0 0
Stamford 5ESE  02:30 AM 57 53 86% S1012 17 mph 178° @ 0213 AM 58 54 86 46 29.98" 0 0 0 0
Sterling City 4WSW  02:30 AM 60 53 78% S1518 23 mph 179° @ 0209 AM 61 45 78 42 30.01" 0 0 0 0
Stinnett 1NNW  02:30 AM 42 38 86% N1517 26 mph 358° @ 1224 AM 53 42 86 50 30.01" 0 0 0 0
Sundown 8WSW  02:30 AM 40 26 59% SW99 13 mph 212° @ 1205 AM 49 40 59 39 30.01" 0 0 0 0
Sweetwater 11SW   02:30 AM 58 47 66% S1011 16 mph 176° @ 0144 AM 59 55 66 37 30.02" 0 0 0 0
Tahoka 3NNE  02:30 AM 45 27 49% SW77 9 mph 198° @ 0100 AM 55 45 49 27 30.00" 0 0 0 0
Tarzan 2WNW  02:30 AM 51 35 54% S910 12 mph 210° @ 0204 AM 55 50 54 41 30.02" 0 0 0 0
Tatum NM 2SW  02:30 AM 41 25 53% W910 13 mph 275° @ 0100 AM 44 39 55 43 30.04" 0 0 0 0
Throckmorton 1SW  02:30 AM 60 58 93% S812 19 mph 182° @ 0156 AM 62 60 93 89 29.97" 0 0 0 0
Tulia 2ENE  02:30 AM 48 27 43% W1416 18 mph 251° @ 0220 AM 51 48 43 38 30.00" 0 0 0 0
Turkey 2WSW  02:30 AM 50 29 45% SW1516 17 mph 227° @ 0210 AM 56 50 46 32 29.95" 0 0 0 0
Umbarger 3NNE  02:30 AM 44 36 72% NW1517 20 mph 299° @ 0214 AM 46 43 81 67 30.01" 0 0 0 0
Van Horn 3ENE  02:30 AM 52 19 27% SW1011 14 mph 212° @ 0159 AM 58 50 27 21 30.10" 0 0 0 0
Vigo Park  02:30 AM 43 29 57% W1113 14 mph 255° @ 0226 AM 45 41 61 55 29.99" 0 0 0 0
Wall 2E  02:30 AM 62 55 79% S78 12 mph 216° @ 0136 AM 65 59 82 69 30.03" 0 0 0 0
Weinert 2NNE  02:30 AM 57 51 79% S1517 20 mph 193° @ 0227 AM 60 56 79 38 29.95" 0 0 0 0
Welch  02:30 AM 42 28 57% SW44 12 mph 206° @ 1230 AM 48 42 57 37 30.01" 0 0 0 0
White River Lake 6NW  02:30 AM 58 21 23% SW911 12 mph 199° @ 0105 AM 59 55 29 23 29.98" 0 0 0 0
Wolfforth 6SSW  02:30 AM 44 25 47% SW910 11 mph 209° @ 0100 AM 48 44 47 40 30.00" 0 0 0 0

West Texas Mesonet Home   Site Map/Menu  NWS Lubbock Soil Data  Daily Summary Page  24hr Precip  72hr Precip  Google Plot